sensor_id;sensor_type;location;lat;lon;timestamp;P1;durP1;ratioP1;P2;durP2;ratioP2
28844;SDS011;15976;47.938;7.758;2023-05-29T00:00:10;8.10;;;5.25;;
28844;SDS011;15976;47.938;7.758;2023-05-29T00:02:47;11.38;;;5.95;;
28844;SDS011;15976;47.938;7.758;2023-05-29T00:05:19;12.07;;;6.70;;
28844;SDS011;15976;47.938;7.758;2023-05-29T00:07:58;13.07;;;6.07;;
28844;SDS011;15976;47.938;7.758;2023-05-29T00:10:26;9.82;;;6.28;;
28844;SDS011;15976;47.938;7.758;2023-05-29T00:13:09;9.63;;;5.90;;
28844;SDS011;15976;47.938;7.758;2023-05-29T00:15:44;12.05;;;6.03;;
28844;SDS011;15976;47.938;7.758;2023-05-29T00:18:32;13.50;;;6.43;;
28844;SDS011;15976;47.938;7.758;2023-05-29T00:21:05;9.88;;;6.20;;
28844;SDS011;15976;47.938;7.758;2023-05-29T00:23:38;13.32;;;6.43;;
28844;SDS011;15976;47.938;7.758;2023-05-29T00:26:13;10.45;;;5.95;;
28844;SDS011;15976;47.938;7.758;2023-05-29T00:29:11;11.40;;;6.20;;
28844;SDS011;15976;47.938;7.758;2023-05-29T00:31:41;12.02;;;6.25;;
28844;SDS011;15976;47.938;7.758;2023-05-29T00:34:11;11.60;;;6.18;;
28844;SDS011;15976;47.938;7.758;2023-05-29T00:36:50;9.95;;;5.90;;
28844;SDS011;15976;47.938;7.758;2023-05-29T00:39:43;10.23;;;6.32;;
28844;SDS011;15976;47.938;7.758;2023-05-29T00:42:25;11.98;;;6.13;;
28844;SDS011;15976;47.938;7.758;2023-05-29T00:44:57;12.73;;;6.78;;
28844;SDS011;15976;47.938;7.758;2023-05-29T00:47:38;11.60;;;6.68;;
28844;SDS011;15976;47.938;7.758;2023-05-29T00:50:30;12.93;;;6.45;;
28844;SDS011;15976;47.938;7.758;2023-05-29T00:53:01;13.20;;;6.32;;
28844;SDS011;15976;47.938;7.758;2023-05-29T00:55:41;11.55;;;6.25;;
28844;SDS011;15976;47.938;7.758;2023-05-29T01:00:47;10.50;;;5.70;;
28844;SDS011;15976;47.938;7.758;2023-05-29T01:03:30;12.23;;;6.25;;
28844;SDS011;15976;47.938;7.758;2023-05-29T01:06:12;11.35;;;6.38;;
28844;SDS011;15976;47.938;7.758;2023-05-29T01:08:54;12.38;;;6.57;;
28844;SDS011;15976;47.938;7.758;2023-05-29T01:11:39;8.80;;;5.65;;
28844;SDS011;15976;47.938;7.758;2023-05-29T01:14:31;10.52;;;6.07;;
28844;SDS011;15976;47.938;7.758;2023-05-29T01:17:21;11.90;;;6.35;;
28844;SDS011;15976;47.938;7.758;2023-05-29T01:20:15;13.55;;;6.15;;
28844;SDS011;15976;47.938;7.758;2023-05-29T01:23:28;14.07;;;6.50;;
28844;SDS011;15976;47.938;7.758;2023-05-29T01:29:11;11.35;;;6.13;;
28844;SDS011;15976;47.938;7.758;2023-05-29T01:32:00;14.02;;;6.88;;
28844;SDS011;15976;47.938;7.758;2023-05-29T01:34:39;11.55;;;5.90;;
28844;SDS011;15976;47.938;7.758;2023-05-29T01:37:20;11.85;;;7.30;;
28844;SDS011;15976;47.938;7.758;2023-05-29T01:39:52;11.35;;;6.95;;
28844;SDS011;15976;47.938;7.758;2023-05-29T01:42:24;14.02;;;6.60;;
28844;SDS011;15976;47.938;7.758;2023-05-29T01:45:02;13.93;;;7.15;;
28844;SDS011;15976;47.938;7.758;2023-05-29T01:47:33;12.80;;;6.80;;
28844;SDS011;15976;47.938;7.758;2023-05-29T01:50:10;11.13;;;6.55;;
28844;SDS011;15976;47.938;7.758;2023-05-29T01:52:53;12.70;;;7.05;;
28844;SDS011;15976;47.938;7.758;2023-05-29T01:55:52;11.55;;;6.40;;
28844;SDS011;15976;47.938;7.758;2023-05-29T01:58:35;12.35;;;6.75;;
28844;SDS011;15976;47.938;7.758;2023-05-29T02:01:15;13.00;;;6.93;;
28844;SDS011;15976;47.938;7.758;2023-05-29T02:03:56;11.73;;;7.05;;
28844;SDS011;15976;47.938;7.758;2023-05-29T02:06:40;12.88;;;7.03;;
28844;SDS011;15976;47.938;7.758;2023-05-29T02:09:17;11.65;;;6.55;;
28844;SDS011;15976;47.938;7.758;2023-05-29T02:12:08;12.18;;;7.40;;
28844;SDS011;15976;47.938;7.758;2023-05-29T02:14:48;12.32;;;6.40;;
28844;SDS011;15976;47.938;7.758;2023-05-29T02:17:16;14.68;;;6.75;;
28844;SDS011;15976;47.938;7.758;2023-05-29T02:19:56;12.68;;;6.88;;
28844;SDS011;15976;47.938;7.758;2023-05-29T02:22:32;11.07;;;6.93;;
28844;SDS011;15976;47.938;7.758;2023-05-29T02:25:05;11.70;;;6.72;;
28844;SDS011;15976;47.938;7.758;2023-05-29T02:27:44;11.90;;;6.97;;
28844;SDS011;15976;47.938;7.758;2023-05-29T02:30:16;12.70;;;6.90;;
28844;SDS011;15976;47.938;7.758;2023-05-29T02:33:00;13.45;;;6.68;;
28844;SDS011;15976;47.938;7.758;2023-05-29T02:35:40;16.10;;;7.70;;
28844;SDS011;15976;47.938;7.758;2023-05-29T02:38:19;13.10;;;7.25;;
28844;SDS011;15976;47.938;7.758;2023-05-29T02:41:04;11.82;;;6.85;;
28844;SDS011;15976;47.938;7.758;2023-05-29T02:43:40;12.77;;;7.57;;
28844;SDS011;15976;47.938;7.758;2023-05-29T02:46:14;11.10;;;6.28;;
28844;SDS011;15976;47.938;7.758;2023-05-29T02:48:56;13.13;;;6.40;;
28844;SDS011;15976;47.938;7.758;2023-05-29T02:51:52;13.20;;;7.10;;
28844;SDS011;15976;47.938;7.758;2023-05-29T02:54:24;11.32;;;6.75;;
28844;SDS011;15976;47.938;7.758;2023-05-29T02:57:15;10.95;;;6.03;;
28844;SDS011;15976;47.938;7.758;2023-05-29T02:59:48;12.73;;;7.18;;
28844;SDS011;15976;47.938;7.758;2023-05-29T03:02:32;12.77;;;7.28;;
28844;SDS011;15976;47.938;7.758;2023-05-29T03:05:03;10.18;;;6.13;;
28844;SDS011;15976;47.938;7.758;2023-05-29T03:07:48;9.75;;;6.80;;
28844;SDS011;15976;47.938;7.758;2023-05-29T03:10:33;12.07;;;6.50;;
28844;SDS011;15976;47.938;7.758;2023-05-29T03:13:13;11.65;;;6.68;;
28844;SDS011;15976;47.938;7.758;2023-05-29T03:16:03;12.27;;;6.50;;
28844;SDS011;15976;47.938;7.758;2023-05-29T03:18:52;11.25;;;6.20;;
28844;SDS011;15976;47.938;7.758;2023-05-29T03:21:20;13.68;;;6.80;;
28844;SDS011;15976;47.938;7.758;2023-05-29T03:24:02;13.43;;;7.20;;
28844;SDS011;15976;47.938;7.758;2023-05-29T03:26:46;14.18;;;7.10;;
28844;SDS011;15976;47.938;7.758;2023-05-29T03:29:16;15.98;;;7.40;;
28844;SDS011;15976;47.938;7.758;2023-05-29T03:31:47;11.63;;;6.95;;
28844;SDS011;15976;47.938;7.758;2023-05-29T03:34:32;11.52;;;6.50;;
28844;SDS011;15976;47.938;7.758;2023-05-29T03:37:04;12.93;;;6.60;;
28844;SDS011;15976;47.938;7.758;2023-05-29T03:39:37;12.27;;;6.70;;
28844;SDS011;15976;47.938;7.758;2023-05-29T03:42:06;14.82;;;7.18;;
28844;SDS011;15976;47.938;7.758;2023-05-29T03:44:36;13.75;;;7.43;;
28844;SDS011;15976;47.938;7.758;2023-05-29T03:47:11;12.93;;;6.95;;
28844;SDS011;15976;47.938;7.758;2023-05-29T03:49:44;10.02;;;6.72;;
28844;SDS011;15976;47.938;7.758;2023-05-29T03:52:18;11.82;;;6.78;;
28844;SDS011;15976;47.938;7.758;2023-05-29T03:55:04;12.88;;;7.13;;
28844;SDS011;15976;47.938;7.758;2023-05-29T03:58:02;14.75;;;7.03;;
28844;SDS011;15976;47.938;7.758;2023-05-29T04:00:35;13.30;;;6.88;;
28844;SDS011;15976;47.938;7.758;2023-05-29T04:03:17;11.75;;;7.00;;
28844;SDS011;15976;47.938;7.758;2023-05-29T04:05:47;14.10;;;7.22;;
28844;SDS011;15976;47.938;7.758;2023-05-29T04:08:47;13.00;;;7.35;;
28844;SDS011;15976;47.938;7.758;2023-05-29T04:11:38;13.75;;;7.20;;
28844;SDS011;15976;47.938;7.758;2023-05-29T04:14:11;10.32;;;6.63;;
28844;SDS011;15976;47.938;7.758;2023-05-29T04:16:46;18.45;;;7.53;;
28844;SDS011;15976;47.938;7.758;2023-05-29T04:19:22;12.75;;;6.88;;
28844;SDS011;15976;47.938;7.758;2023-05-29T04:21:52;11.27;;;7.13;;
28844;SDS011;15976;47.938;7.758;2023-05-29T04:27:14;14.43;;;7.07;;
28844;SDS011;15976;47.938;7.758;2023-05-29T04:29:45;12.55;;;7.32;;
28844;SDS011;15976;47.938;7.758;2023-05-29T04:32:15;12.88;;;7.20;;
28844;SDS011;15976;47.938;7.758;2023-05-29T04:34:49;13.13;;;7.28;;
28844;SDS011;15976;47.938;7.758;2023-05-29T04:37:29;13.77;;;7.22;;
28844;SDS011;15976;47.938;7.758;2023-05-29T04:40:12;14.32;;;7.28;;
28844;SDS011;15976;47.938;7.758;2023-05-29T04:42:55;13.68;;;7.15;;
28844;SDS011;15976;47.938;7.758;2023-05-29T04:45:30;17.05;;;7.40;;
28844;SDS011;15976;47.938;7.758;2023-05-29T04:48:08;12.65;;;7.43;;
28844;SDS011;15976;47.938;7.758;2023-05-29T04:50:51;19.27;;;8.57;;
28844;SDS011;15976;47.938;7.758;2023-05-29T04:53:32;14.57;;;7.55;;
28844;SDS011;15976;47.938;7.758;2023-05-29T04:56:24;14.75;;;8.18;;
28844;SDS011;15976;47.938;7.758;2023-05-29T04:59:03;17.08;;;7.95;;
28844;SDS011;15976;47.938;7.758;2023-05-29T05:01:45;14.85;;;8.20;;
28844;SDS011;15976;47.938;7.758;2023-05-29T05:04:26;12.05;;;7.82;;
28844;SDS011;15976;47.938;7.758;2023-05-29T05:07:50;14.60;;;7.97;;
28844;SDS011;15976;47.938;7.758;2023-05-29T05:10:34;17.48;;;8.65;;
28844;SDS011;15976;47.938;7.758;2023-05-29T05:13:15;12.38;;;7.55;;
28844;SDS011;15976;47.938;7.758;2023-05-29T05:16:11;18.85;;;8.55;;
28844;SDS011;15976;47.938;7.758;2023-05-29T05:18:47;14.75;;;8.63;;
28844;SDS011;15976;47.938;7.758;2023-05-29T05:24:30;16.40;;;8.30;;
28844;SDS011;15976;47.938;7.758;2023-05-29T05:27:12;13.32;;;7.97;;
28844;SDS011;15976;47.938;7.758;2023-05-29T05:29:42;14.88;;;8.88;;
28844;SDS011;15976;47.938;7.758;2023-05-29T05:32:22;13.50;;;8.15;;
28844;SDS011;15976;47.938;7.758;2023-05-29T05:35:09;14.57;;;8.20;;
28844;SDS011;15976;47.938;7.758;2023-05-29T05:37:43;15.13;;;8.20;;
28844;SDS011;15976;47.938;7.758;2023-05-29T05:40:30;15.18;;;8.63;;
28844;SDS011;15976;47.938;7.758;2023-05-29T05:43:17;14.40;;;8.68;;
28844;SDS011;15976;47.938;7.758;2023-05-29T05:46:33;14.10;;;8.63;;
28844;SDS011;15976;47.938;7.758;2023-05-29T05:49:09;16.90;;;8.90;;
28844;SDS011;15976;47.938;7.758;2023-05-29T05:51:47;17.35;;;8.90;;
28844;SDS011;15976;47.938;7.758;2023-05-29T05:54:22;14.63;;;8.55;;
28844;SDS011;15976;47.938;7.758;2023-05-29T05:57:05;17.15;;;8.55;;
28844;SDS011;15976;47.938;7.758;2023-05-29T05:59:48;16.20;;;8.50;;
28844;SDS011;15976;47.938;7.758;2023-05-29T06:02:21;18.17;;;8.45;;
28844;SDS011;15976;47.938;7.758;2023-05-29T06:05:06;13.98;;;7.95;;
28844;SDS011;15976;47.938;7.758;2023-05-29T06:07:47;14.20;;;8.80;;
28844;SDS011;15976;47.938;7.758;2023-05-29T06:10:17;13.50;;;7.93;;
28844;SDS011;15976;47.938;7.758;2023-05-29T06:12:49;15.38;;;8.18;;
28844;SDS011;15976;47.938;7.758;2023-05-29T06:15:42;17.77;;;8.88;;
28844;SDS011;15976;47.938;7.758;2023-05-29T06:18:12;17.33;;;9.20;;
28844;SDS011;15976;47.938;7.758;2023-05-29T06:20:52;14.35;;;8.43;;
28844;SDS011;15976;47.938;7.758;2023-05-29T06:23:40;16.77;;;8.70;;
28844;SDS011;15976;47.938;7.758;2023-05-29T06:26:22;16.48;;;8.05;;
28844;SDS011;15976;47.938;7.758;2023-05-29T06:28:55;18.67;;;8.10;;
28844;SDS011;15976;47.938;7.758;2023-05-29T06:31:28;17.33;;;8.70;;
28844;SDS011;15976;47.938;7.758;2023-05-29T06:34:02;16.73;;;8.18;;
28844;SDS011;15976;47.938;7.758;2023-05-29T06:36:42;14.65;;;8.88;;
28844;SDS011;15976;47.938;7.758;2023-05-29T06:39:18;15.18;;;8.10;;
28844;SDS011;15976;47.938;7.758;2023-05-29T06:42:05;15.02;;;8.10;;
28844;SDS011;15976;47.938;7.758;2023-05-29T06:44:44;17.83;;;8.10;;
28844;SDS011;15976;47.938;7.758;2023-05-29T06:47:26;13.00;;;8.05;;
28844;SDS011;15976;47.938;7.758;2023-05-29T06:50:00;14.52;;;7.75;;
28844;SDS011;15976;47.938;7.758;2023-05-29T06:53:08;11.85;;;7.53;;
28844;SDS011;15976;47.938;7.758;2023-05-29T06:55:50;12.45;;;7.72;;
28844;SDS011;15976;47.938;7.758;2023-05-29T06:58:20;14.45;;;7.95;;
28844;SDS011;15976;47.938;7.758;2023-05-29T07:00:57;15.52;;;8.07;;
28844;SDS011;15976;47.938;7.758;2023-05-29T07:03:36;13.00;;;7.45;;
28844;SDS011;15976;47.938;7.758;2023-05-29T07:06:08;14.60;;;7.65;;
28844;SDS011;15976;47.938;7.758;2023-05-29T07:08:44;13.30;;;7.00;;
28844;SDS011;15976;47.938;7.758;2023-05-29T07:11:22;12.75;;;7.40;;
28844;SDS011;15976;47.938;7.758;2023-05-29T07:14:12;14.07;;;7.95;;
28844;SDS011;15976;47.938;7.758;2023-05-29T07:16:48;16.08;;;7.53;;
28844;SDS011;15976;47.938;7.758;2023-05-29T07:19:23;13.95;;;7.38;;
28844;SDS011;15976;47.938;7.758;2023-05-29T07:22:07;13.18;;;7.38;;
28844;SDS011;15976;47.938;7.758;2023-05-29T07:24:42;12.45;;;7.30;;
28844;SDS011;15976;47.938;7.758;2023-05-29T07:27:26;11.55;;;7.15;;
28844;SDS011;15976;47.938;7.758;2023-05-29T07:30:02;13.38;;;7.28;;
28844;SDS011;15976;47.938;7.758;2023-05-29T07:32:55;15.25;;;7.20;;
28844;SDS011;15976;47.938;7.758;2023-05-29T07:35:33;12.05;;;7.43;;
28844;SDS011;15976;47.938;7.758;2023-05-29T07:38:19;13.75;;;7.00;;
28844;SDS011;15976;47.938;7.758;2023-05-29T07:40:59;12.50;;;7.60;;
28844;SDS011;15976;47.938;7.758;2023-05-29T07:43:42;14.77;;;7.03;;
28844;SDS011;15976;47.938;7.758;2023-05-29T07:46:25;11.38;;;6.80;;
28844;SDS011;15976;47.938;7.758;2023-05-29T07:49:23;15.10;;;6.90;;
28844;SDS011;15976;47.938;7.758;2023-05-29T07:52:12;11.02;;;7.32;;
28844;SDS011;15976;47.938;7.758;2023-05-29T07:54:45;12.15;;;6.97;;
28844;SDS011;15976;47.938;7.758;2023-05-29T07:59:49;12.13;;;6.90;;
28844;SDS011;15976;47.938;7.758;2023-05-29T08:02:19;14.00;;;6.88;;
28844;SDS011;15976;47.938;7.758;2023-05-29T08:05:09;13.20;;;6.38;;
28844;SDS011;15976;47.938;7.758;2023-05-29T08:07:39;10.60;;;6.63;;
28844;SDS011;15976;47.938;7.758;2023-05-29T08:10:17;10.45;;;6.22;;
28844;SDS011;15976;47.938;7.758;2023-05-29T08:12:45;10.77;;;6.07;;
28844;SDS011;15976;47.938;7.758;2023-05-29T08:15:20;11.73;;;5.78;;
28844;SDS011;15976;47.938;7.758;2023-05-29T08:17:50;9.55;;;6.43;;
28844;SDS011;15976;47.938;7.758;2023-05-29T08:20:24;9.20;;;6.20;;
28844;SDS011;15976;47.938;7.758;2023-05-29T08:23:06;10.75;;;6.63;;
28844;SDS011;15976;47.938;7.758;2023-05-29T08:25:38;11.10;;;5.75;;
28844;SDS011;15976;47.938;7.758;2023-05-29T08:28:08;9.35;;;5.38;;
28844;SDS011;15976;47.938;7.758;2023-05-29T08:31:06;9.68;;;6.15;;
28844;SDS011;15976;47.938;7.758;2023-05-29T08:33:40;8.85;;;5.35;;
28844;SDS011;15976;47.938;7.758;2023-05-29T08:36:11;12.02;;;6.07;;
28844;SDS011;15976;47.938;7.758;2023-05-29T08:38:48;10.65;;;5.97;;
28844;SDS011;15976;47.938;7.758;2023-05-29T08:44:17;9.18;;;5.38;;
28844;SDS011;15976;47.938;7.758;2023-05-29T08:47:01;10.95;;;5.88;;
28844;SDS011;15976;47.938;7.758;2023-05-29T08:49:42;10.90;;;5.05;;
28844;SDS011;15976;47.938;7.758;2023-05-29T08:52:22;7.18;;;5.45;;
28844;SDS011;15976;47.938;7.758;2023-05-29T08:54:57;9.88;;;5.45;;
28844;SDS011;15976;47.938;7.758;2023-05-29T08:57:29;10.00;;;5.57;;
28844;SDS011;15976;47.938;7.758;2023-05-29T08:59:57;12.13;;;5.40;;
28844;SDS011;15976;47.938;7.758;2023-05-29T09:02:35;9.45;;;5.53;;
28844;SDS011;15976;47.938;7.758;2023-05-29T09:05:15;7.55;;;5.15;;
28844;SDS011;15976;47.938;7.758;2023-05-29T09:07:53;8.77;;;5.05;;
28844;SDS011;15976;47.938;7.758;2023-05-29T09:10:29;8.65;;;5.00;;
28844;SDS011;15976;47.938;7.758;2023-05-29T09:13:26;10.55;;;5.65;;
28844;SDS011;15976;47.938;7.758;2023-05-29T09:15:59;9.50;;;5.40;;
28844;SDS011;15976;47.938;7.758;2023-05-29T09:18:49;7.38;;;5.10;;
28844;SDS011;15976;47.938;7.758;2023-05-29T09:21:27;8.73;;;5.22;;
28844;SDS011;15976;47.938;7.758;2023-05-29T09:24:08;7.68;;;5.15;;
28844;SDS011;15976;47.938;7.758;2023-05-29T09:26:48;8.75;;;5.00;;
28844;SDS011;15976;47.938;7.758;2023-05-29T09:29:23;8.20;;;5.20;;
28844;SDS011;15976;47.938;7.758;2023-05-29T09:31:56;10.02;;;5.20;;
28844;SDS011;15976;47.938;7.758;2023-05-29T09:34:31;11.35;;;5.90;;
28844;SDS011;15976;47.938;7.758;2023-05-29T09:37:19;8.70;;;5.25;;
28844;SDS011;15976;47.938;7.758;2023-05-29T09:39:53;10.55;;;5.38;;
28844;SDS011;15976;47.938;7.758;2023-05-29T09:42:42;9.13;;;5.60;;
28844;SDS011;15976;47.938;7.758;2023-05-29T09:47:59;6.83;;;4.57;;
28844;SDS011;15976;47.938;7.758;2023-05-29T09:50:31;7.50;;;4.60;;
28844;SDS011;15976;47.938;7.758;2023-05-29T09:55:46;7.75;;;4.78;;
28844;SDS011;15976;47.938;7.758;2023-05-29T09:58:30;7.55;;;5.13;;
28844;SDS011;15976;47.938;7.758;2023-05-29T10:01:03;9.38;;;5.05;;
28844;SDS011;15976;47.938;7.758;2023-05-29T10:03:41;9.52;;;5.13;;
28844;SDS011;15976;47.938;7.758;2023-05-29T10:06:16;10.43;;;5.15;;
28844;SDS011;15976;47.938;7.758;2023-05-29T10:09:00;8.25;;;4.60;;
28844;SDS011;15976;47.938;7.758;2023-05-29T10:11:53;7.00;;;5.13;;
28844;SDS011;15976;47.938;7.758;2023-05-29T10:14:36;6.90;;;5.00;;
28844;SDS011;15976;47.938;7.758;2023-05-29T10:19:41;8.40;;;4.90;;
28844;SDS011;15976;47.938;7.758;2023-05-29T10:22:45;9.32;;;5.13;;
28844;SDS011;15976;47.938;7.758;2023-05-29T10:25:38;6.00;;;4.70;;
28844;SDS011;15976;47.938;7.758;2023-05-29T10:28:12;7.75;;;4.18;;
28844;SDS011;15976;47.938;7.758;2023-05-29T10:30:57;6.68;;;4.45;;
28844;SDS011;15976;47.938;7.758;2023-05-29T10:37:06;6.47;;;4.28;;
28844;SDS011;15976;47.938;7.758;2023-05-29T10:39:51;7.10;;;4.65;;
28844;SDS011;15976;47.938;7.758;2023-05-29T10:50:41;7.85;;;3.83;;
28844;SDS011;15976;47.938;7.758;2023-05-29T10:53:37;6.63;;;3.60;;
28844;SDS011;15976;47.938;7.758;2023-05-29T10:56:36;5.55;;;4.03;;
28844;SDS011;15976;47.938;7.758;2023-05-29T10:59:28;7.32;;;4.18;;
28844;SDS011;15976;47.938;7.758;2023-05-29T11:02:16;6.55;;;4.47;;
28844;SDS011;15976;47.938;7.758;2023-05-29T11:08:03;5.72;;;4.13;;
28844;SDS011;15976;47.938;7.758;2023-05-29T11:10:43;8.23;;;4.47;;
28844;SDS011;15976;47.938;7.758;2023-05-29T11:16:14;6.78;;;4.20;;
28844;SDS011;15976;47.938;7.758;2023-05-29T11:19:19;7.97;;;4.10;;
28844;SDS011;15976;47.938;7.758;2023-05-29T11:24:29;5.88;;;3.97;;
28844;SDS011;15976;47.938;7.758;2023-05-29T11:27:06;7.03;;;4.50;;
28844;SDS011;15976;47.938;7.758;2023-05-29T11:29:43;6.40;;;4.28;;
28844;SDS011;15976;47.938;7.758;2023-05-29T11:32:17;7.60;;;3.92;;
28844;SDS011;15976;47.938;7.758;2023-05-29T11:34:50;6.32;;;3.65;;
28844;SDS011;15976;47.938;7.758;2023-05-29T11:37:45;9.55;;;4.63;;
28844;SDS011;15976;47.938;7.758;2023-05-29T11:40:40;10.20;;;4.18;;
28844;SDS011;15976;47.938;7.758;2023-05-29T11:43:17;4.97;;;3.97;;
28844;SDS011;15976;47.938;7.758;2023-05-29T11:48:23;5.28;;;3.97;;
28844;SDS011;15976;47.938;7.758;2023-05-29T11:50:55;7.40;;;4.35;;
28844;SDS011;15976;47.938;7.758;2023-05-29T11:53:35;6.28;;;4.07;;
28844;SDS011;15976;47.938;7.758;2023-05-29T11:58:40;6.25;;;4.07;;
28844;SDS011;15976;47.938;7.758;2023-05-29T12:01:17;6.32;;;4.38;;
28844;SDS011;15976;47.938;7.758;2023-05-29T12:03:55;5.93;;;3.97;;
28844;SDS011;15976;47.938;7.758;2023-05-29T12:06:37;9.15;;;4.40;;
28844;SDS011;15976;47.938;7.758;2023-05-29T12:09:23;8.50;;;3.85;;
28844;SDS011;15976;47.938;7.758;2023-05-29T12:12:03;7.80;;;4.05;;
28844;SDS011;15976;47.938;7.758;2023-05-29T12:14:34;7.20;;;3.95;;
28844;SDS011;15976;47.938;7.758;2023-05-29T12:17:08;7.47;;;4.05;;
28844;SDS011;15976;47.938;7.758;2023-05-29T12:19:41;7.32;;;4.10;;
28844;SDS011;15976;47.938;7.758;2023-05-29T12:25:12;9.48;;;4.60;;
28844;SDS011;15976;47.938;7.758;2023-05-29T12:27:45;7.60;;;4.25;;
28844;SDS011;15976;47.938;7.758;2023-05-29T12:30:16;7.50;;;4.50;;
28844;SDS011;15976;47.938;7.758;2023-05-29T12:32:58;7.35;;;4.20;;
28844;SDS011;15976;47.938;7.758;2023-05-29T12:35:29;7.22;;;4.32;;
28844;SDS011;15976;47.938;7.758;2023-05-29T12:37:57;6.00;;;4.15;;
28844;SDS011;15976;47.938;7.758;2023-05-29T12:40:29;7.38;;;3.83;;
28844;SDS011;15976;47.938;7.758;2023-05-29T12:43:01;7.80;;;4.00;;
28844;SDS011;15976;47.938;7.758;2023-05-29T12:45:35;6.63;;;4.15;;
28844;SDS011;15976;47.938;7.758;2023-05-29T12:48:03;5.75;;;3.95;;
28844;SDS011;15976;47.938;7.758;2023-05-29T12:50:33;5.38;;;4.28;;
28844;SDS011;15976;47.938;7.758;2023-05-29T12:53:03;5.88;;;4.22;;
28844;SDS011;15976;47.938;7.758;2023-05-29T12:55:46;9.90;;;4.53;;
28844;SDS011;15976;47.938;7.758;2023-05-29T12:58:19;5.30;;;4.10;;
28844;SDS011;15976;47.938;7.758;2023-05-29T13:00:53;6.32;;;4.25;;
28844;SDS011;15976;47.938;7.758;2023-05-29T13:03:26;7.43;;;4.55;;
28844;SDS011;15976;47.938;7.758;2023-05-29T13:05:56;5.70;;;4.13;;
28844;SDS011;15976;47.938;7.758;2023-05-29T13:08:33;7.35;;;4.28;;
28844;SDS011;15976;47.938;7.758;2023-05-29T13:11:03;6.70;;;3.97;;
28844;SDS011;15976;47.938;7.758;2023-05-29T13:13:31;5.55;;;4.30;;
28844;SDS011;15976;47.938;7.758;2023-05-29T13:16:04;11.25;;;4.30;;
28844;SDS011;15976;47.938;7.758;2023-05-29T13:18:32;5.32;;;4.10;;
28844;SDS011;15976;47.938;7.758;2023-05-29T13:21:02;4.65;;;4.05;;
28844;SDS011;15976;47.938;7.758;2023-05-29T13:23:30;6.63;;;4.13;;
28844;SDS011;15976;47.938;7.758;2023-05-29T13:26:10;9.75;;;4.15;;
28844;SDS011;15976;47.938;7.758;2023-05-29T13:28:43;6.75;;;4.20;;
28844;SDS011;15976;47.938;7.758;2023-05-29T13:31:16;8.32;;;4.22;;
28844;SDS011;15976;47.938;7.758;2023-05-29T13:33:49;6.18;;;4.05;;
28844;SDS011;15976;47.938;7.758;2023-05-29T13:36:17;7.38;;;4.45;;
28844;SDS011;15976;47.938;7.758;2023-05-29T13:38:48;5.82;;;4.45;;
28844;SDS011;15976;47.938;7.758;2023-05-29T13:41:18;4.93;;;4.13;;
28844;SDS011;15976;47.938;7.758;2023-05-29T13:43:46;7.40;;;4.32;;
28844;SDS011;15976;47.938;7.758;2023-05-29T13:46:16;8.27;;;3.97;;
28844;SDS011;15976;47.938;7.758;2023-05-29T13:48:49;9.73;;;4.40;;
28844;SDS011;15976;47.938;7.758;2023-05-29T13:51:20;7.05;;;4.43;;
28844;SDS011;15976;47.938;7.758;2023-05-29T13:53:50;7.95;;;4.07;;
28844;SDS011;15976;47.938;7.758;2023-05-29T13:56:26;5.50;;;4.05;;
28844;SDS011;15976;47.938;7.758;2023-05-29T13:58:57;6.78;;;4.55;;
28844;SDS011;15976;47.938;7.758;2023-05-29T14:01:36;5.75;;;4.07;;
28844;SDS011;15976;47.938;7.758;2023-05-29T14:04:05;6.13;;;4.20;;
28844;SDS011;15976;47.938;7.758;2023-05-29T14:09:11;7.20;;;4.43;;
28844;SDS011;15976;47.938;7.758;2023-05-29T14:11:43;4.85;;;4.00;;
28844;SDS011;15976;47.938;7.758;2023-05-29T14:14:11;7.18;;;4.18;;
28844;SDS011;15976;47.938;7.758;2023-05-29T14:16:47;9.00;;;4.53;;
28844;SDS011;15976;47.938;7.758;2023-05-29T14:19:24;6.35;;;4.63;;
28844;SDS011;15976;47.938;7.758;2023-05-29T14:24:26;4.97;;;4.40;;
28844;SDS011;15976;47.938;7.758;2023-05-29T14:26:56;7.13;;;4.70;;
28844;SDS011;15976;47.938;7.758;2023-05-29T14:29:24;6.95;;;4.20;;
28844;SDS011;15976;47.938;7.758;2023-05-29T14:31:54;5.80;;;4.80;;
28844;SDS011;15976;47.938;7.758;2023-05-29T14:34:25;5.85;;;4.70;;
28844;SDS011;15976;47.938;7.758;2023-05-29T14:36:56;5.30;;;4.45;;
28844;SDS011;15976;47.938;7.758;2023-05-29T14:39:36;6.25;;;4.68;;
28844;SDS011;15976;47.938;7.758;2023-05-29T14:42:13;9.50;;;4.85;;
28844;SDS011;15976;47.938;7.758;2023-05-29T14:44:49;6.60;;;5.00;;
28844;SDS011;15976;47.938;7.758;2023-05-29T14:47:20;5.70;;;4.82;;
28844;SDS011;15976;47.938;7.758;2023-05-29T14:49:53;5.55;;;4.60;;
28844;SDS011;15976;47.938;7.758;2023-05-29T14:52:21;6.13;;;4.47;;
28844;SDS011;15976;47.938;7.758;2023-05-29T14:54:53;6.15;;;4.68;;
28844;SDS011;15976;47.938;7.758;2023-05-29T14:57:24;9.13;;;4.60;;
28844;SDS011;15976;47.938;7.758;2023-05-29T15:00:00;5.90;;;4.60;;
28844;SDS011;15976;47.938;7.758;2023-05-29T15:02:30;5.90;;;4.95;;
28844;SDS011;15976;47.938;7.758;2023-05-29T15:05:17;6.97;;;4.72;;
28844;SDS011;15976;47.938;7.758;2023-05-29T15:08:00;6.28;;;4.55;;
28844;SDS011;15976;47.938;7.758;2023-05-29T15:10:30;8.55;;;4.95;;
28844;SDS011;15976;47.938;7.758;2023-05-29T15:13:12;7.28;;;4.85;;
28844;SDS011;15976;47.938;7.758;2023-05-29T15:15:48;7.25;;;4.70;;
28844;SDS011;15976;47.938;7.758;2023-05-29T15:18:17;5.68;;;4.43;;
28844;SDS011;15976;47.938;7.758;2023-05-29T15:20:54;9.02;;;5.00;;
28844;SDS011;15976;47.938;7.758;2023-05-29T15:23:30;6.68;;;4.68;;
28844;SDS011;15976;47.938;7.758;2023-05-29T15:26:04;7.93;;;5.10;;
28844;SDS011;15976;47.938;7.758;2023-05-29T15:28:36;6.60;;;5.40;;
28844;SDS011;15976;47.938;7.758;2023-05-29T15:31:09;7.15;;;5.18;;
28844;SDS011;15976;47.938;7.758;2023-05-29T15:33:49;6.97;;;4.88;;
28844;SDS011;15976;47.938;7.758;2023-05-29T15:36:21;7.38;;;4.68;;
28844;SDS011;15976;47.938;7.758;2023-05-29T15:38:57;6.55;;;4.72;;
28844;SDS011;15976;47.938;7.758;2023-05-29T15:41:33;6.75;;;5.00;;
28844;SDS011;15976;47.938;7.758;2023-05-29T15:44:03;7.22;;;5.10;;
28844;SDS011;15976;47.938;7.758;2023-05-29T15:46:37;10.23;;;4.90;;
28844;SDS011;15976;47.938;7.758;2023-05-29T15:49:12;7.90;;;5.85;;
28844;SDS011;15976;47.938;7.758;2023-05-29T15:51:47;7.40;;;4.82;;
28844;SDS011;15976;47.938;7.758;2023-05-29T15:54:35;7.85;;;4.88;;
28844;SDS011;15976;47.938;7.758;2023-05-29T15:57:08;8.43;;;5.15;;
28844;SDS011;15976;47.938;7.758;2023-05-29T15:59:41;6.38;;;4.57;;
28844;SDS011;15976;47.938;7.758;2023-05-29T16:02:09;9.50;;;5.03;;
28844;SDS011;15976;47.938;7.758;2023-05-29T16:04:40;7.88;;;5.05;;
28844;SDS011;15976;47.938;7.758;2023-05-29T16:07:31;7.03;;;4.80;;
28844;SDS011;15976;47.938;7.758;2023-05-29T16:10:01;7.45;;;4.93;;
28844;SDS011;15976;47.938;7.758;2023-05-29T16:12:36;6.93;;;4.70;;
28844;SDS011;15976;47.938;7.758;2023-05-29T16:15:06;9.15;;;5.10;;
28844;SDS011;15976;47.938;7.758;2023-05-29T16:17:38;7.65;;;4.88;;
28844;SDS011;15976;47.938;7.758;2023-05-29T16:20:17;7.10;;;5.30;;
28844;SDS011;15976;47.938;7.758;2023-05-29T16:25:26;6.25;;;4.68;;
28844;SDS011;15976;47.938;7.758;2023-05-29T16:27:56;7.18;;;4.90;;
28844;SDS011;15976;47.938;7.758;2023-05-29T16:30:25;7.05;;;5.13;;
28844;SDS011;15976;47.938;7.758;2023-05-29T16:32:53;5.97;;;4.88;;
28844;SDS011;15976;47.938;7.758;2023-05-29T16:35:24;6.32;;;4.80;;
28844;SDS011;15976;47.938;7.758;2023-05-29T16:38:01;7.65;;;5.15;;
28844;SDS011;15976;47.938;7.758;2023-05-29T16:40:36;8.27;;;5.13;;
28844;SDS011;15976;47.938;7.758;2023-05-29T16:43:09;6.28;;;4.70;;
28844;SDS011;15976;47.938;7.758;2023-05-29T16:45:49;7.40;;;4.90;;